Abel Figueiredo, Brazil
Current Conditions -  °F | °C
As of 3:00 AM on Monday 24 Nov 2014 (Local Time) from SBMA Reporting Station
Thunderstorm Thunderstorm  
Wind Chill: 77°   Ceiling: Unl
Heat Index: 78°   Visibility: 6mi
Dew Point: 75°   Wind: 1mph
Humidity: 94%   Direction: 280°W
Pressure: 29.83"   Gusts: NA
Location:  4.95°S, 48.39°W
Report Text: SBMA 240600Z 28001KT 9999 VCTS SCT025 FEW030CB 25/24 Q1010
Loading
Personal Weather Stations






























Interactive Weather Map New forecast layout! Learn more

10-Day Weather Forecast

Advertisements
Track Severe Weather on mobile